createdAt,value
2022-11-10T00:03:13.767Z,101882.03
2022-11-10T00:06:36.834Z,101859.69
2022-11-10T00:09:59.412Z,101878.56
2022-11-10T00:13:22.283Z,101890.16
2022-11-10T00:17:04.832Z,101878.84
2022-11-10T00:20:29.943Z,101884.78
2022-11-10T00:23:55.552Z,101889.47
2022-11-10T00:27:21.343Z,101895.94
2022-11-10T00:30:46.771Z,101895.38
2022-11-10T00:34:13.487Z,101769.28
2022-11-10T00:37:39.022Z,101895.44
2022-11-10T00:41:02.312Z,101891.97
2022-11-10T00:44:24.880Z,101887.34
2022-11-10T00:47:50.250Z,101902.22
2022-11-10T00:51:28.089Z,101896.53
2022-11-10T00:54:51.340Z,101891.19
2022-11-10T00:58:14.469Z,101889.38
2022-11-10T01:01:45.663Z,101904.31
2022-11-10T01:05:08.643Z,101881.38
2022-11-10T01:08:31.335Z,101895.81
2022-11-10T01:11:55.194Z,101899.25
2022-11-10T01:15:19.896Z,101927.88
2022-11-10T01:18:51.593Z,101899.31
2022-11-10T01:22:14.493Z,101912.84
2022-11-10T01:25:37.808Z,101914.72
2022-11-10T01:29:01.697Z,101865.44
2022-11-10T01:32:24.597Z,101912.91
2022-11-10T01:35:47.989Z,101905.34
2022-11-10T01:39:11.108Z,101899.09
2022-11-10T01:43:01.501Z,101920.31
2022-11-10T01:46:24.595Z,101901.09
2022-11-10T01:49:47.368Z,101905.38
2022-11-10T01:53:15.777Z,101907.19
2022-11-10T01:56:43.695Z,101859.75
2022-11-10T02:00:07.046Z,101901.53
2022-11-10T02:03:36.825Z,101899.53
2022-11-10T02:07:00.777Z,101894.44
2022-11-10T02:10:23.732Z,101909.13
2022-11-10T02:13:46.771Z,101899.63
2022-11-10T02:17:09.893Z,101892.78
2022-11-10T02:20:33.095Z,101868.38
2022-11-10T02:23:56.200Z,101893.03
2022-11-10T02:27:18.986Z,101903.94
2022-11-10T02:30:41.549Z,101865.69
2022-11-10T02:34:05.024Z,101897.78
2022-11-10T02:37:27.950Z,101827.97
2022-11-10T02:40:51.632Z,101901.06
2022-11-10T02:44:14.554Z,101881.28
2022-11-10T02:47:37.807Z,101871.28
2022-11-10T02:51:00.566Z,101882.81
2022-11-10T02:54:23.155Z,101869.84
2022-11-10T02:57:46.141Z,101869.41
2022-11-10T03:01:09.251Z,101890.66
2022-11-10T03:04:32.139Z,101883.91
2022-11-10T03:07:56.500Z,101888.00
2022-11-10T03:11:19.502Z,101828.25
2022-11-10T03:14:42.002Z,101867.91
2022-11-10T03:18:06.703Z,101872.06
2022-11-10T03:21:29.424Z,101863.47
2022-11-10T03:24:52.721Z,101862.06
2022-11-10T03:28:16.440Z,101865.25
2022-11-10T03:31:39.855Z,101875.69
2022-11-10T03:35:03.211Z,101865.06
2022-11-10T03:38:25.811Z,101862.50
2022-11-10T03:41:48.995Z,101842.31
2022-11-10T03:45:13.857Z,101854.69
2022-11-10T03:48:37.458Z,101827.09
2022-11-10T03:52:00.491Z,101868.97
2022-11-10T03:55:23.643Z,101854.41
2022-11-10T03:58:46.415Z,101864.75
2022-11-10T04:02:09.269Z,101850.22
2022-11-10T04:05:50.586Z,101850.53
2022-11-10T04:09:15.552Z,101851.13
2022-11-10T04:12:57.307Z,101844.81
2022-11-10T04:16:20.365Z,101867.28
2022-11-10T04:19:43.354Z,101882.66
2022-11-10T04:23:26.206Z,101878.59
2022-11-10T04:26:49.865Z,101885.34
2022-11-10T04:30:13.159Z,101871.63
2022-11-10T04:33:37.207Z,101881.16
2022-11-10T04:37:00.349Z,101892.19
2022-11-10T04:40:22.542Z,101892.91
2022-11-10T04:43:45.937Z,101898.38
2022-11-10T04:47:11.871Z,101897.44
2022-11-10T04:50:35.934Z,101894.09
2022-11-10T04:53:58.688Z,101884.44
2022-11-10T04:57:21.669Z,101889.81
2022-11-10T05:00:44.881Z,101896.97
2022-11-10T05:04:07.497Z,101892.72
2022-11-10T05:07:30.531Z,101892.66
2022-11-10T05:10:53.410Z,101901.75
2022-11-10T05:14:15.981Z,101895.50
2022-11-10T05:17:39.210Z,101907.25
2022-11-10T05:21:02.525Z,101912.78
2022-11-10T05:24:25.728Z,101908.69
2022-11-10T05:27:48.792Z,101911.31
2022-11-10T05:31:12.395Z,101913.38
2022-11-10T05:34:35.393Z,101901.66
2022-11-10T05:37:58.594Z,101879.66
2022-11-10T05:41:21.385Z,101863.31
2022-11-10T05:44:44.042Z,101927.44
2022-11-10T05:48:08.232Z,101929.44
2022-11-10T05:51:30.957Z,101922.88
2022-11-10T05:54:56.369Z,101929.84
2022-11-10T05:58:19.665Z,101927.78
2022-11-10T06:01:42.657Z,101926.16
2022-11-10T06:05:05.711Z,101936.28
2022-11-10T06:08:28.659Z,101945.78
2022-11-10T06:11:52.133Z,101948.78
2022-11-10T06:15:16.616Z,101956.50
2022-11-10T06:18:39.790Z,101948.00
2022-11-10T06:22:07.354Z,101957.13
2022-11-10T06:25:32.220Z,101968.47
2022-11-10T06:28:55.370Z,101971.59
2022-11-10T06:32:18.344Z,101965.94
2022-11-10T06:35:41.085Z,101970.91
2022-11-10T06:39:04.741Z,101972.25
2022-11-10T06:42:27.601Z,101962.47
2022-11-10T06:45:50.407Z,101973.44
2022-11-10T06:49:13.152Z,101967.09
2022-11-10T06:52:35.661Z,101976.66
2022-11-10T06:55:58.402Z,101985.53
2022-11-10T06:59:21.256Z,101974.25
2022-11-10T07:02:44.524Z,101986.41
2022-11-10T07:06:07.904Z,102005.16
2022-11-10T07:09:31.298Z,101990.19
2022-11-10T07:13:01.344Z,102000.56
2022-11-10T07:16:24.663Z,102004.16
2022-11-10T07:19:47.450Z,102007.28
2022-11-10T07:23:10.831Z,102001.94
2022-11-10T07:26:33.228Z,102004.53
2022-11-10T07:29:56.044Z,102011.81
2022-11-10T07:33:19.089Z,102013.84
2022-11-10T07:36:41.814Z,102015.38
2022-11-10T07:40:05.388Z,102028.50
2022-11-10T07:43:28.162Z,102023.56
2022-11-10T07:46:51.531Z,102033.06
2022-11-10T07:50:14.415Z,102055.19
2022-11-10T07:53:37.689Z,102053.53
2022-11-10T07:57:00.493Z,102043.84
2022-11-10T08:00:23.654Z,102044.91
2022-11-10T08:03:46.622Z,102066.81
2022-11-10T08:07:09.455Z,102057.03
2022-11-10T08:10:34.932Z,102077.72
2022-11-10T08:13:57.565Z,102078.22
2022-11-10T08:17:20.421Z,102082.50
2022-11-10T08:20:43.376Z,102069.31
2022-11-10T08:24:07.687Z,102093.84
2022-11-10T08:27:31.091Z,102097.91
2022-11-10T08:30:54.188Z,102096.53
2022-11-10T08:34:17.325Z,102067.91
2022-11-10T08:37:39.812Z,102109.59
2022-11-10T08:41:02.630Z,102097.19
2022-11-10T08:44:25.395Z,102100.88
2022-11-10T08:47:48.187Z,102114.44
2022-11-10T08:51:10.758Z,102064.50
2022-11-10T08:54:34.394Z,102118.34
2022-11-10T08:58:01.605Z,102118.69
2022-11-10T09:01:24.339Z,102109.03
2022-11-10T09:04:47.412Z,102112.50
2022-11-10T09:08:10.639Z,102126.47
2022-11-10T09:11:33.364Z,102119.34
2022-11-10T09:14:56.212Z,102123.97
2022-11-10T09:18:19.135Z,102132.03
2022-11-10T09:21:42.075Z,102140.81
2022-11-10T09:25:05.889Z,102132.19
2022-11-10T09:28:28.474Z,102149.13
2022-11-10T09:31:51.585Z,102160.63
2022-11-10T09:35:14.641Z,102150.50
2022-11-10T09:38:37.650Z,102120.72
2022-11-10T09:42:01.747Z,102168.09
2022-11-10T09:45:48.413Z,102171.09
2022-11-10T09:49:40.058Z,102147.66
2022-11-10T09:53:04.337Z,102164.78
2022-11-10T09:56:39.155Z,102162.59
2022-11-10T10:00:02.026Z,102156.03
2022-11-10T10:03:32.424Z,102167.06
2022-11-10T10:07:24.008Z,102175.13
2022-11-10T10:10:51.419Z,102160.41
2022-11-10T10:14:40.408Z,102164.56
2022-11-10T10:18:12.071Z,102170.41
2022-11-10T10:21:47.723Z,102172.47
2022-11-10T10:25:30.591Z,102183.03
2022-11-10T10:28:54.014Z,102184.06
2022-11-10T10:32:18.549Z,102133.25
2022-11-10T10:35:43.258Z,102191.97
2022-11-10T10:39:32.595Z,102186.34
2022-11-10T10:42:55.396Z,102190.81
2022-11-10T10:46:20.281Z,102174.78
2022-11-10T10:50:26.434Z,102191.00
2022-11-10T10:53:51.245Z,102200.84
2022-11-10T10:57:31.538Z,102204.69
2022-11-10T11:01:06.576Z,102200.19
2022-11-10T11:04:39.187Z,102187.31
2022-11-10T11:08:03.764Z,102207.88
2022-11-10T11:11:36.846Z,102210.75
2022-11-10T11:15:23.157Z,102210.47
2022-11-10T11:18:47.046Z,102216.88
2022-11-10T11:22:52.095Z,102214.84
2022-11-10T11:26:48.145Z,102211.25
2022-11-10T11:30:20.481Z,102219.31
2022-11-10T11:33:51.034Z,102202.44
2022-11-10T11:37:49.274Z,102215.47
2022-11-10T11:41:21.197Z,102221.06
2022-11-10T11:45:17.007Z,102220.97
2022-11-10T11:49:20.444Z,102224.81
2022-11-10T11:53:01.666Z,102233.88
2022-11-10T11:56:39.126Z,102232.34
2022-11-10T12:00:15.303Z,102232.72
2022-11-10T12:03:42.661Z,102234.78
2022-11-10T12:07:20.534Z,102237.63
2022-11-10T12:11:02.646Z,102237.25
2022-11-10T12:15:00.617Z,102231.16
2022-11-10T12:18:29.323Z,102210.53
2022-11-10T12:22:10.672Z,102237.69
2022-11-10T12:25:44.669Z,102237.13
2022-11-10T12:29:27.510Z,102240.22
2022-11-10T12:32:53.969Z,102248.84
2022-11-10T12:36:18.278Z,102241.19
2022-11-10T12:39:47.715Z,102236.63
2022-11-10T12:43:18.074Z,102236.16
2022-11-10T12:46:49.477Z,102241.16
2022-11-10T12:50:17.502Z,102239.72
2022-11-10T12:53:43.378Z,102237.94
2022-11-10T12:57:20.833Z,102248.09
2022-11-10T13:01:11.753Z,102236.50
2022-11-10T13:04:35.990Z,102241.47
2022-11-10T13:08:15.637Z,102231.78
2022-11-10T13:11:41.282Z,102241.19
2022-11-10T13:15:36.947Z,102246.84
2022-11-10T13:19:00.313Z,102237.63
2022-11-10T13:22:31.110Z,102251.81
2022-11-10T13:26:02.735Z,102247.78
2022-11-10T13:29:35.871Z,102245.50
2022-11-10T13:33:36.331Z,102260.22
2022-11-10T13:37:00.138Z,102262.00
2022-11-10T13:40:26.265Z,102254.53
2022-11-10T13:43:50.842Z,102264.47
2022-11-10T13:47:54.011Z,102264.59
2022-11-10T13:51:32.224Z,102268.56
2022-11-10T13:55:16.825Z,102272.69
2022-11-10T13:58:45.344Z,102269.78
2022-11-10T14:02:37.208Z,102266.72
2022-11-10T14:06:11.130Z,102264.47
2022-11-10T14:09:40.782Z,102257.16
2022-11-10T14:13:19.306Z,102268.72
2022-11-10T14:16:44.798Z,102273.09
2022-11-10T14:20:42.518Z,102240.44
2022-11-10T14:24:16.697Z,102265.66
2022-11-10T14:27:40.293Z,102272.06
2022-11-10T14:31:03.307Z,102265.09
2022-11-10T14:34:26.967Z,102277.56
2022-11-10T14:37:50.676Z,102257.25
2022-11-10T14:41:21.042Z,102269.16
2022-11-10T14:44:44.322Z,102272.06
2022-11-10T14:48:20.185Z,102225.19
2022-11-10T14:51:43.650Z,102227.25
2022-11-10T14:55:21.111Z,102265.75
2022-11-10T14:58:47.433Z,102264.53
2022-11-10T15:02:16.001Z,102269.31
2022-11-10T15:05:38.530Z,102264.72
2022-11-10T15:09:12.644Z,102273.41
2022-11-10T15:12:40.898Z,102270.75
2022-11-10T15:16:26.324Z,102283.41
2022-11-10T15:19:49.859Z,102232.09
2022-11-10T15:23:33.064Z,102250.50
2022-11-10T15:26:56.740Z,102254.31
2022-11-10T15:30:27.008Z,102273.09
2022-11-10T15:33:53.867Z,102259.28
2022-11-10T15:37:30.595Z,102252.88
2022-11-10T15:41:05.169Z,102259.41
2022-11-10T15:44:32.104Z,102252.84
2022-11-10T15:47:55.857Z,102255.47
2022-11-10T15:51:25.898Z,102273.88
2022-11-10T15:54:51.447Z,102261.97
2022-11-10T15:58:25.401Z,102258.25
2022-11-10T16:01:48.898Z,102258.97
2022-11-10T16:05:13.549Z,102261.31
2022-11-10T16:08:37.415Z,102252.53
2022-11-10T16:12:00.477Z,102255.34
2022-11-10T16:15:23.571Z,102256.72
2022-11-10T16:18:47.139Z,102268.38
2022-11-10T16:22:14.208Z,102256.91
2022-11-10T16:25:37.627Z,102273.25
2022-11-10T16:29:00.641Z,102267.88
2022-11-10T16:32:23.592Z,102263.41
2022-11-10T16:35:46.974Z,102272.63
2022-11-10T16:39:14.907Z,102275.63
2022-11-10T16:42:38.154Z,102276.41
2022-11-10T16:46:05.297Z,102283.91
2022-11-10T16:49:36.332Z,102248.03
2022-11-10T16:52:59.467Z,102286.78
2022-11-10T16:56:23.960Z,102292.53
2022-11-10T16:59:46.655Z,102278.59
2022-11-10T17:03:17.530Z,102294.34
2022-11-10T17:06:40.754Z,102243.44
2022-11-10T17:10:03.777Z,102289.22
2022-11-10T17:13:28.598Z,102278.38
2022-11-10T17:16:51.305Z,102268.53
2022-11-10T17:20:33.145Z,102289.25
2022-11-10T17:23:56.286Z,102274.56
2022-11-10T17:27:20.963Z,102284.97
2022-11-10T17:30:44.347Z,102271.50
2022-11-10T17:34:07.267Z,102263.53
2022-11-10T17:37:29.842Z,102281.69
2022-11-10T17:40:53.314Z,102280.03
2022-11-10T17:44:20.441Z,102275.59
2022-11-10T17:47:43.484Z,102267.47
2022-11-10T17:51:07.121Z,102272.16
2022-11-10T17:54:30.038Z,102243.63
2022-11-10T17:57:54.144Z,102272.03
2022-11-10T18:01:22.601Z,102285.16
2022-11-10T18:04:45.142Z,102245.91
2022-11-10T18:08:08.457Z,102240.06
2022-11-10T18:11:31.910Z,102270.97
2022-11-10T18:14:54.532Z,102263.31
2022-11-10T18:18:19.143Z,102277.63
2022-11-10T18:21:42.130Z,102278.97
2022-11-10T18:25:05.257Z,102268.94
2022-11-10T18:28:28.126Z,102258.81
2022-11-10T18:31:50.797Z,102280.84
2022-11-10T18:35:13.681Z,102252.16
2022-11-10T18:38:36.833Z,102281.16
2022-11-10T18:41:59.868Z,102285.28
2022-11-10T18:45:22.654Z,102277.50
2022-11-10T18:48:49.313Z,102286.72
2022-11-10T18:52:12.156Z,102286.00
2022-11-10T18:55:34.952Z,102270.69
2022-11-10T18:58:58.294Z,102302.84
2022-11-10T19:02:21.303Z,102290.53
2022-11-10T19:05:44.203Z,102285.22
2022-11-10T19:09:07.544Z,102288.84
2022-11-10T19:12:30.470Z,102293.03
2022-11-10T19:15:53.521Z,102295.69
2022-11-10T19:19:16.476Z,102298.91
2022-11-10T19:22:39.533Z,102297.31
2022-11-10T19:26:07.658Z,102304.06
2022-11-10T19:29:29.931Z,102281.94
2022-11-10T19:32:53.252Z,102298.00
2022-11-10T19:36:19.433Z,102282.97
2022-11-10T19:39:42.219Z,102301.00
2022-11-10T19:43:04.987Z,102283.50
2022-11-10T19:46:29.712Z,102292.53
2022-11-10T19:49:52.379Z,102270.81
2022-11-10T19:53:17.290Z,102280.63
2022-11-10T19:56:40.570Z,102285.78
2022-11-10T20:00:03.166Z,102289.44
2022-11-10T20:03:26.075Z,102280.09
2022-11-10T20:06:49.051Z,102289.53
2022-11-10T20:10:12.137Z,102289.19
2022-11-10T20:13:35.393Z,102286.66
2022-11-10T20:16:58.343Z,102236.63
2022-11-10T20:20:21.759Z,102279.38
2022-11-10T20:23:45.614Z,102274.25
2022-11-10T20:27:08.179Z,102280.00
2022-11-10T20:30:31.690Z,102283.91
2022-11-10T20:33:56.951Z,102280.59
2022-11-10T20:37:19.962Z,102265.63
2022-11-10T20:40:44.790Z,102273.84
2022-11-10T20:44:08.135Z,102277.22
2022-11-10T20:47:31.050Z,102262.28
2022-11-10T20:50:53.606Z,102264.34
2022-11-10T20:54:18.225Z,102256.25
2022-11-10T20:57:41.231Z,102265.28
2022-11-10T21:01:15.015Z,102277.56
2022-11-10T21:04:42.824Z,102271.41
2022-11-10T21:08:07.184Z,102273.88
2022-11-10T21:11:48.345Z,102230.84
2022-11-10T21:15:11.387Z,102256.94
2022-11-10T21:18:38.213Z,102270.22
2022-11-10T21:22:01.510Z,102268.81
2022-11-10T21:25:24.415Z,102243.47
2022-11-10T21:28:46.941Z,102242.56
2022-11-10T21:32:09.638Z,102247.19
2022-11-10T21:35:37.746Z,102243.06
2022-11-10T21:39:00.929Z,102233.09
2022-11-10T21:42:24.194Z,102231.88
2022-11-10T21:45:46.934Z,102189.72
2022-11-10T21:49:09.372Z,102217.13
2022-11-10T21:52:36.102Z,102231.28
2022-11-10T21:56:03.975Z,102238.03
2022-11-10T21:59:26.542Z,102208.44
2022-11-10T22:02:49.238Z,102225.09
2022-11-10T22:06:17.485Z,102231.03
2022-11-10T22:09:58.805Z,102233.09
2022-11-10T22:13:40.934Z,102226.34
2022-11-10T22:17:22.479Z,102212.25
2022-11-10T22:20:46.011Z,102235.66
2022-11-10T22:24:29.569Z,102234.00
2022-11-10T22:27:52.454Z,102219.31
2022-11-10T22:31:15.345Z,102230.44
2022-11-10T22:34:38.121Z,102236.47
2022-11-10T22:38:07.934Z,102233.00
2022-11-10T22:41:49.341Z,102263.31
2022-11-10T22:45:12.277Z,102243.66
2022-11-10T22:48:35.308Z,102244.47
2022-11-10T22:51:58.283Z,102207.97
2022-11-10T22:55:21.328Z,102255.66
2022-11-10T22:58:44.405Z,102253.03
2022-11-10T23:02:07.190Z,102216.56
2022-11-10T23:05:29.791Z,102263.13
2022-11-10T23:08:52.710Z,102263.47
2022-11-10T23:12:15.100Z,102265.41
2022-11-10T23:15:39.183Z,102233.56
2022-11-10T23:19:02.818Z,102240.91
2022-11-10T23:22:25.569Z,102212.16
2022-11-10T23:25:59.221Z,102207.34
2022-11-10T23:29:22.077Z,102214.03
2022-11-10T23:32:45.058Z,102203.19
2022-11-10T23:36:09.272Z,102221.13
2022-11-10T23:39:32.212Z,102206.75
2022-11-10T23:42:55.372Z,102215.66
2022-11-10T23:46:18.556Z,102204.38
2022-11-10T23:49:41.214Z,102214.16
2022-11-10T23:53:03.989Z,102211.81
2022-11-10T23:56:27.187Z,102203.44
2022-11-10T23:59:50.304Z,102199.88
